Ana Sayfa
METAR-TAF:

METAR-TAF

Havaalanları :

Hughenden, Avustralya

Enlem: 20-48-54S, Boylam: 144-13-30E, yükseklik: 318 m

Güncel hava durumu gözlemi

Rapor saat 06:00 UTC de 1 saat ve 16 dakika önce yapıldı.
Rüzgar güney/güneybatıdan 8 kt, güney ve batı arasında değişken
Sıcaklık 41°C
Nem 8%
Basınç 1006 hPa
Görüş mesafesi 10 km veya daha fazla

METAR: YHUG 140600Z AUTO 20008KT 180V260 9999 // NCD 41/00 Q1006

Saat: 17:16 (07:16 UTC)


TAF: eksik

4.000'den fazla havaalanı için hava durumu gözlemleri ve tahminleri (METAR ve TAF raporları).

Kullanılabilir istasyonlar harita üzerinde sarı ve kırmızı noktalarla gösterilir.

İstasyonun adını görmek için fareyi noktanın üzerinde gezdirin.

Sonrasında hava gözlem ve tahminlerini görmek için tıklayın.

Haritayı değiştirmek için: yaklaştırmak için siyah artı işaretli yeşil düğmeye ve uzaklaştırmak için de eksi işaretli düğmeye hızla tıklayın; bitişik haritalar için yeşil okları kullanın.


METAR-TAF: